Time;durP1;ratioP1;P1;durP2;ratioP2;P2;SDS_P1;SDS_P2;PMS_P1;PMS_P2;Temp;Humidity;BMP_temperature;BMP_pressure;BME280_temperature;BME280_humidity;BME280_pressure;Samples;Min_cycle;Max_cycle;Signal;HPM_P1;HPM_P2
2022/03/12 00:00:18;;;;;;;0.63;0.63;;;11.30;99.90;10.80;100969.00;;;;5115207;28;20183;-69
2022/03/12 00:02:51;;;;;;;0.27;0.27;;;11.30;99.90;10.70;100986.00;;;;5115109;28;20191;-69
2022/03/12 00:05:18;;;;;;;0.70;0.70;;;11.30;99.90;10.70;100982.00;;;;5116461;28;20269;-70
2022/03/12 00:07:44;;;;;;;1.53;0.97;;;11.20;99.90;10.60;100991.00;;;;5115369;28;20184;-69
2022/03/12 00:10:18;;;;;;;0.57;0.57;;;11.20;99.90;10.70;100989.00;;;;5097824;28;20214;-70
2022/03/12 00:12:49;;;;;;;0.70;0.70;;;11.20;99.90;10.70;100990.00;;;;5098759;28;20240;-69
2022/03/12 00:15:22;;;;;;;0.50;0.50;;;11.20;99.90;10.80;100998.00;;;;5114571;28;20181;-69
2022/03/12 00:17:56;;;;;;;0.63;0.50;;;11.30;99.90;10.70;101002.00;;;;5114927;28;20181;-69
2022/03/12 00:20:26;;;;;;;0.70;0.70;;;11.30;99.90;10.70;100995.00;;;;5115059;28;20178;-69
2022/03/12 00:22:57;;;;;;;0.40;0.40;;;11.30;99.90;10.60;101000.00;;;;5098171;28;20192;-70
2022/03/12 00:25:28;;;;;;;1.27;1.27;;;11.20;99.90;10.60;100980.00;;;;5097643;28;20174;-69
2022/03/12 00:27:56;;;;;;;0.60;0.60;;;11.30;99.90;10.90;101008.00;;;;5097787;28;20243;-69
2022/03/12 00:30:35;;;;;;;0.20;0.20;;;11.30;99.90;11.00;101018.00;;;;5097433;28;20195;-69
2022/03/12 00:33:06;;;;;;;0.50;0.50;;;11.40;99.90;11.00;100976.00;;;;5097742;28;20221;-69
2022/03/12 00:35:40;;;;;;;0.83;0.80;;;11.50;99.90;11.00;100997.00;;;;5098176;28;20182;-70
2022/03/12 00:38:14;;;;;;;0.97;0.70;;;11.50;99.90;10.80;101007.00;;;;5114918;28;20156;-68
2022/03/12 00:40:48;;;;;;;1.90;1.03;;;11.40;99.90;10.90;101022.00;;;;5098392;28;20556;-69
2022/03/12 00:43:21;;;;;;;2.60;2.40;;;11.40;99.90;10.70;101021.00;;;;5113971;28;20609;-70
2022/03/12 00:46:16;;;;;;;0.53;0.40;;;11.30;99.90;10.80;101017.00;;;;5114449;28;20608;-70
2022/03/12 00:49:00;;;;;;;0.43;0.43;;;11.30;99.90;10.60;101025.00;;;;5112275;28;20711;-70
2022/03/12 00:51:28;;;;;;;0.63;0.63;;;11.20;99.90;10.60;101020.00;;;;5097146;28;20209;-70
2022/03/12 00:53:54;;;;;;;1.17;1.07;;;11.20;99.90;10.50;101030.00;;;;5097396;28;20566;-71
2022/03/12 00:56:23;;;;;;;0.30;0.30;;;11.10;99.90;10.60;101028.00;;;;5096235;28;20181;-70
2022/03/12 00:58:54;;;;;;;0.43;0.43;;;11.20;99.90;10.60;101025.00;;;;5114001;28;20180;-71
2022/03/12 01:01:23;;;;;;;0.57;0.57;;;11.10;99.90;10.50;101032.00;;;;5097429;28;20227;-70
2022/03/12 01:03:54;;;;;;;1.40;1.30;;;11.10;99.90;10.60;101037.00;;;;5113848;28;20165;-71
2022/03/12 01:06:23;;;;;;;0.67;0.67;;;11.10;99.90;10.60;101042.00;;;;5097428;28;20180;-71
2022/03/12 01:08:51;;;;;;;2.93;2.07;;;11.10;99.90;10.40;101039.00;;;;5114286;28;20517;-70
2022/03/12 01:11:24;;;;;;;2.20;2.00;;;11.00;99.90;10.30;101055.00;;;;5096791;28;20591;-70
2022/03/12 01:13:52;;;;;;;0.80;0.77;;;11.00;99.90;10.40;101053.00;;;;5113562;28;20180;-71
2022/03/12 01:16:24;;;;;;;1.27;1.23;;;11.00;99.90;10.50;101052.00;;;;5113713;28;20314;-70
2022/03/12 01:18:58;;;;;;;0.43;0.43;;;11.10;99.90;10.60;101054.00;;;;5114757;28;20185;-71
2022/03/12 01:21:26;;;;;;;0.70;0.70;;;11.00;99.90;10.30;101048.00;;;;5097507;28;20185;-70
2022/03/12 01:23:53;;;;;;;1.07;0.97;;;11.00;99.90;10.10;101056.00;;;;5113369;28;20551;-70
2022/03/12 01:26:25;;;;;;;0.60;0.60;;;10.90;99.90;10.20;101033.00;;;;5113338;28;20275;-71
2022/03/12 01:28:51;;;;;;;0.87;0.83;;;10.80;99.90;10.40;101048.00;;;;5096726;28;20222;-71
2022/03/12 01:31:21;;;;;;;2.33;1.97;;;10.90;99.90;10.20;101053.00;;;;5113363;28;20195;-71
2022/03/12 01:33:49;;;;;;;4.57;2.50;;;10.90;99.90;10.20;101067.00;;;;5113470;28;20180;-70
2022/03/12 01:36:23;;;;;;;2.20;1.67;;;10.90;99.90;10.20;101071.00;;;;5096803;28;20182;-70
2022/03/12 01:38:57;;;;;;;0.70;0.70;;;10.90;99.90;10.20;101065.00;;;;5113326;28;20178;-71
2022/03/12 01:41:30;;;;;;;1.43;1.20;;;10.90;99.90;10.10;101067.00;;;;5112991;28;20179;-71
2022/03/12 01:43:59;;;;;;;1.03;1.03;;;10.90;99.90;10.30;101070.00;;;;5113073;28;20217;-71
2022/03/12 01:46:41;;;;;;;2.20;1.50;;;10.90;99.90;10.20;101060.00;;;;5096384;28;20568;-69
2022/03/12 01:49:25;;;;;;;0.30;0.30;;;10.80;99.90;10.20;101060.00;;;;5113016;28;20190;-72
2022/03/12 01:52:00;;;;;;;1.07;0.97;;;10.80;99.90;10.10;101014.00;;;;5113096;28;20207;-71
2022/03/12 01:54:28;;;;;;;1.17;1.07;;;10.80;99.90;10.20;101013.00;;;;5113076;28;20164;-71
2022/03/12 01:56:56;;;;;;;1.23;1.13;;;10.80;99.90;10.10;101021.00;;;;5095900;28;20661;-71
2022/03/12 01:59:25;;;;;;;1.87;1.23;;;10.80;99.90;10.20;101072.00;;;;5112682;28;20180;-71
2022/03/12 02:01:56;;;;;;;0.57;0.57;;;10.80;99.90;10.50;101060.00;;;;5112941;28;20191;-72
2022/03/12 02:04:23;;;;;;;1.47;1.37;;;10.90;99.90;10.20;101062.00;;;;5112624;28;20627;-71
2022/03/12 02:06:52;;;;;;;3.40;1.07;;;10.90;99.90;10.20;101068.00;;;;5113853;28;20183;-72
2022/03/12 02:09:22;;;;;;;2.47;1.70;;;10.80;99.90;10.30;101075.00;;;;5112983;28;20176;-72
2022/03/12 02:11:51;;;;;;;1.53;1.13;;;10.80;99.90;10.10;101067.00;;;;5112805;28;20200;-71
2022/03/12 02:14:27;;;;;;;1.00;0.73;;;10.80;99.90;10.10;101068.00;;;;5112743;28;20172;-71
2022/03/12 02:16:56;;;;;;;1.23;1.00;;;10.70;99.90;10.00;101073.00;;;;5095741;28;20184;-71
2022/03/12 02:19:28;;;;;;;0.50;0.50;;;10.60;99.90;9.80;101082.00;;;;5112575;28;20549;-71
2022/03/12 02:21:57;;;;;;;1.07;0.83;;;10.60;99.90;9.80;101082.00;;;;5112764;28;20176;-70
2022/03/12 02:24:29;;;;;;;1.00;1.00;;;10.50;99.90;9.80;101077.00;;;;5095373;28;20527;-71
2022/03/12 02:26:57;;;;;;;3.37;2.07;;;10.50;99.90;9.80;101057.00;;;;5112684;28;20632;-71
2022/03/12 02:29:28;;;;;;;0.30;0.30;;;10.50;99.90;9.90;101095.00;;;;5112536;28;20175;-71
2022/03/12 02:31:58;;;;;;;1.07;1.07;;;10.50;99.90;9.90;101085.00;;;;5112081;28;20215;-71
2022/03/12 02:34:31;;;;;;;0.63;0.50;;;10.50;99.90;9.90;101095.00;;;;5112427;28;20696;-70
2022/03/12 02:37:00;;;;;;;0.70;0.70;;;10.50;99.90;9.90;101088.00;;;;5112713;28;20576;-71
2022/03/12 02:39:29;;;;;;;1.73;1.10;;;10.50;99.90;9.90;101091.00;;;;5112179;28;20571;-71
2022/03/12 02:42:01;;;;;;;1.10;1.00;;;10.50;99.90;10.00;101093.00;;;;5095421;28;20192;-71
2022/03/12 02:44:28;;;;;;;1.17;1.07;;;10.50;99.90;10.00;101096.00;;;;5112263;28;20263;-71
2022/03/12 02:47:20;;;;;;;2.83;1.33;;;10.50;99.90;9.80;101102.00;;;;5112606;28;20526;-71
2022/03/12 02:49:56;;;;;;;3.40;0.70;;;10.60;99.90;10.10;101100.00;;;;5096115;28;20187;-71
2022/03/12 02:52:26;;;;;;;1.27;1.17;;;10.60;99.90;10.00;101069.00;;;;5112122;28;20202;-71
2022/03/12 02:54:58;;;;;;;0.60;0.60;;;10.60;99.90;10.20;101058.00;;;;5112082;28;20506;-71
2022/03/12 02:57:28;;;;;;;0.60;0.60;;;10.70;99.90;10.00;101110.00;;;;5095285;28;20183;-70
2022/03/12 03:00:04;;;;;;;0.83;0.83;;;10.70;99.90;9.90;101102.00;;;;5113714;28;20173;-71
2022/03/12 03:02:45;;;;;;;0.67;0.60;;;10.60;99.90;10.10;101103.00;;;;5112019;28;20228;-71
2022/03/12 03:05:16;;;;;;;0.30;0.30;;;10.70;99.90;9.90;101054.00;;;;5097090;28;20281;-71
2022/03/12 03:07:55;;;;;;;0.70;0.57;;;10.60;99.90;9.90;101103.00;;;;5113728;28;20173;-70
2022/03/12 03:10:34;;;;;;;0.70;0.70;;;10.50;99.90;9.70;101112.00;;;;5112437;28;20651;-70
2022/03/12 03:13:16;;;;;;;0.53;0.53;;;10.50;99.90;9.80;101079.00;;;;5111994;28;20221;-70
2022/03/12 03:16:03;;;;;;;1.67;1.03;;;10.40;99.90;9.60;101111.00;;;;5112625;28;20186;-71
2022/03/12 03:18:38;;;;;;;0.80;0.73;;;10.30;99.90;9.60;101108.00;;;;5113312;28;20184;-70
2022/03/12 03:21:10;;;;;;;0.50;0.50;;;10.30;99.90;9.70;101122.00;;;;5099256;28;20183;-70
2022/03/12 03:23:37;;;;;;;0.73;0.73;;;10.30;99.90;9.70;101125.00;;;;5098652;28;20282;-70
2022/03/12 03:26:06;;;;;;;0.30;0.30;;;10.30;99.90;9.70;101123.00;;;;5115981;28;20176;-71
2022/03/12 03:28:35;;;;;;;0.77;0.77;;;10.30;99.90;9.70;101111.00;;;;5098958;28;20220;-70
2022/03/12 03:31:05;;;;;;;0.30;0.30;;;10.30;99.90;9.60;101126.00;;;;5098263;28;20210;-71
2022/03/12 03:33:31;;;;;;;0.93;0.77;;;10.40;99.90;9.80;101137.00;;;;5115733;28;20188;-70
2022/03/12 03:36:00;;;;;;;0.77;0.77;;;10.40;99.90;9.70;101122.00;;;;5098936;28;20187;-70
2022/03/12 03:38:26;;;;;;;0.50;0.50;;;10.30;99.90;9.90;101079.00;;;;5115556;28;20616;-71
2022/03/12 03:40:57;;;;;;;0.67;0.63;;;10.50;99.90;9.90;101130.00;;;;5098651;28;20198;-71
2022/03/12 03:43:26;;;;;;;0.20;0.20;;;10.50;99.90;9.80;101126.00;;;;5099283;28;20175;-70
2022/03/12 03:46:00;;;;;;;1.20;0.90;;;10.40;99.90;9.90;101087.00;;;;5116178;28;20542;-71
2022/03/12 03:48:37;;;;;;;0.73;0.57;;;10.50;99.90;9.90;101116.00;;;;5115510;28;20179;-70
2022/03/12 03:51:08;;;;;;;0.50;0.50;;;10.50;99.90;10.10;101130.00;;;;5098745;28;20540;-70
2022/03/12 03:53:39;;;;;;;0.80;0.80;;;10.50;99.90;9.90;101132.00;;;;5098416;28;20638;-71
2022/03/12 03:56:10;;;;;;;1.03;0.77;;;10.50;99.90;9.80;101136.00;;;;5098430;28;20581;-71
2022/03/12 03:58:42;;;;;;;0.30;0.30;;;10.50;99.90;9.90;101131.00;;;;5098453;28;20184;-70
2022/03/12 04:01:15;;;;;;;1.87;0.60;;;10.50;99.90;9.90;101135.00;;;;5115225;28;20184;-70
2022/03/12 04:03:48;;;;;;;0.80;0.50;;;10.50;99.90;9.90;101132.00;;;;5097871;28;20187;-71
2022/03/12 04:06:22;;;;;;;0.70;0.70;;;10.50;99.90;9.70;101117.00;;;;5098645;28;20579;-71
2022/03/12 04:08:52;;;;;;;0.37;0.37;;;10.50;99.90;9.90;101105.00;;;;5098141;28;20232;-70
2022/03/12 04:11:21;;;;;;;0.40;0.40;;;10.40;99.90;9.70;101130.00;;;;5115281;28;20214;-70
2022/03/12 04:13:53;;;;;;;1.50;0.70;;;10.40;99.90;9.70;101139.00;;;;5116122;27;20231;-70
2022/03/12 04:16:24;;;;;;;2.27;0.77;;;10.30;99.90;9.60;101137.00;;;;5115220;28;20176;-70
2022/03/12 04:18:56;;;;;;;1.20;0.87;;;10.30;99.90;9.60;101152.00;;;;5114822;28;20176;-71
2022/03/12 04:21:24;;;;;;;0.60;0.60;;;10.30;99.90;9.70;101094.00;;;;5114759;28;20182;-70
2022/03/12 04:23:53;;;;;;;0.70;0.70;;;10.30;99.90;9.60;101130.00;;;;5097836;28;20171;-71
2022/03/12 04:26:21;;;;;;;0.63;0.63;;;10.30;99.90;9.50;101120.00;;;;5114720;28;20265;-70
2022/03/12 04:28:49;;;;;;;0.60;0.60;;;10.20;99.90;9.50;101145.00;;;;5096898;28;20205;-71
2022/03/12 04:31:18;;;;;;;0.40;0.40;;;10.10;99.90;9.40;101148.00;;;;5114709;28;20640;-70
2022/03/12 04:33:52;;;;;;;4.40;3.63;;;10.10;99.90;9.40;101148.00;;;;5097372;28;20194;-71
2022/03/12 04:36:20;;;;;;;0.30;0.30;;;10.10;99.90;9.50;101157.00;;;;5114516;28;20494;-71
2022/03/12 04:38:52;;;;;;;0.80;0.80;;;10.10;99.90;9.60;101148.00;;;;5115604;28;20273;-70
2022/03/12 04:41:24;;;;;;;1.10;1.10;;;10.10;99.90;9.70;101148.00;;;;5114616;28;20262;-71
2022/03/12 04:43:50;;;;;;;1.00;0.90;;;10.20;99.90;9.60;101145.00;;;;5097412;28;20198;-70
2022/03/12 04:46:19;;;;;;;1.30;1.23;;;10.20;99.90;9.40;101146.00;;;;5114688;28;20190;-71
2022/03/12 04:48:47;;;;;;;0.47;0.47;;;10.20;99.90;9.60;101135.00;;;;5097371;28;20176;-71
2022/03/12 04:51:21;;;;;;;0.50;0.50;;;10.20;99.90;9.40;101143.00;;;;5113893;28;20175;-70
2022/03/12 04:53:47;;;;;;;0.53;0.53;;;10.10;99.90;9.40;101146.00;;;;5114266;28;20198;-71
2022/03/12 04:56:16;;;;;;;0.97;0.97;;;10.00;99.90;9.40;101121.00;;;;5113914;28;20219;-71
2022/03/12 04:58:45;;;;;;;2.57;1.40;;;10.00;99.90;9.30;101151.00;;;;5096895;28;20184;-71
2022/03/12 05:01:11;;;;;;;0.67;0.67;;;10.00;99.90;9.20;101168.00;;;;5096960;28;20191;-70
2022/03/12 05:03:43;;;;;;;0.43;0.43;;;9.90;99.90;9.50;101169.00;;;;5113854;28;20190;-70
2022/03/12 05:06:15;;;;;;;0.50;0.50;;;10.00;99.90;9.30;101176.00;;;;5113907;28;20233;-70
2022/03/12 05:08:43;;;;;;;0.90;0.80;;;9.90;99.90;9.20;101167.00;;;;5096918;28;20718;-71
2022/03/12 05:11:16;;;;;;;0.93;0.67;;;9.90;99.90;9.20;101129.00;;;;5114006;28;20179;-70
2022/03/12 05:13:42;;;;;;;0.50;0.50;;;9.90;99.90;9.10;101186.00;;;;5113771;28;20213;-70
2022/03/12 05:16:13;;;;;;;2.13;1.93;;;9.80;99.90;9.20;101139.00;;;;5113905;28;20199;-70
2022/03/12 05:18:42;;;;;;;6.53;1.60;;;9.80;99.90;9.10;101176.00;;;;5113221;28;20182;-71
2022/03/12 05:21:08;;;;;;;0.30;0.30;;;9.70;99.90;9.30;101177.00;;;;5113711;28;20179;-70
2022/03/12 05:23:40;;;;;;;0.87;0.87;;;9.80;99.90;9.20;101190.00;;;;5096507;28;20292;-70
2022/03/12 05:26:10;;;;;;;0.80;0.80;;;9.80;99.90;9.40;101152.00;;;;5113585;28;20176;-70
2022/03/12 05:28:41;;;;;;;0.50;0.50;;;9.80;99.90;9.10;101164.00;;;;5096825;28;20182;-70
2022/03/12 05:31:09;;;;;;;4.70;3.30;;;9.80;99.90;9.10;101188.00;;;;5113287;28;20177;-70
2022/03/12 05:33:39;;;;;;;1.80;1.70;;;9.70;99.90;9.10;101194.00;;;;5113079;28;20278;-70
2022/03/12 05:36:08;;;;;;;0.40;0.40;;;9.70;99.90;9.10;101193.00;;;;5113406;28;20540;-70
2022/03/12 05:38:40;;;;;;;2.53;1.13;;;9.60;99.90;9.10;101200.00;;;;5113654;28;20561;-70
2022/03/12 05:41:12;;;;;;;0.40;0.40;;;9.60;99.90;9.10;101207.00;;;;5095721;28;20735;-70
2022/03/12 05:43:44;;;;;;;0.40;0.40;;;9.70;99.90;9.00;101206.00;;;;5113191;28;20181;-70
2022/03/12 05:46:15;;;;;;;0.80;0.80;;;9.60;99.90;8.90;101202.00;;;;5096769;28;20187;-70
2022/03/12 05:48:46;;;;;;;0.47;0.47;;;9.60;99.90;9.10;101204.00;;;;5096024;28;20663;-71
2022/03/12 05:51:17;;;;;;;0.43;0.43;;;9.60;99.90;8.80;101156.00;;;;5113231;28;20197;-70
2022/03/12 05:53:45;;;;;;;0.80;0.80;;;9.50;99.90;9.10;101201.00;;;;5095974;28;20181;-71
2022/03/12 05:56:13;;;;;;;0.30;0.30;;;9.50;99.90;9.10;101203.00;;;;5113025;28;20574;-70
2022/03/12 05:58:47;;;;;;;0.30;0.30;;;9.60;99.90;9.00;101211.00;;;;5113004;28;20637;-70
2022/03/12 06:01:18;;;;;;;0.80;0.47;;;9.60;99.90;9.10;101208.00;;;;5112919;28;20531;-70
2022/03/12 06:03:45;;;;;;;0.83;0.83;;;9.60;99.90;8.80;101205.00;;;;5095993;28;20189;-70
2022/03/12 06:06:13;;;;;;;0.43;0.43;;;9.50;99.90;8.80;101214.00;;;;5112708;28;20177;-72
2022/03/12 06:08:42;;;;;;;0.60;0.60;;;9.50;99.90;8.70;101220.00;;;;5112851;28;20178;-71
2022/03/12 06:11:10;;;;;;;1.20;1.20;;;9.40;99.90;8.70;101229.00;;;;5112780;28;20175;-72
2022/03/12 06:13:39;;;;;;;0.30;0.30;;;9.40;99.90;8.80;101183.00;;;;5112818;28;20184;-70
2022/03/12 06:16:10;;;;;;;1.53;1.43;;;9.40;99.90;8.90;101234.00;;;;5096162;28;20702;-70
2022/03/12 06:18:41;;;;;;;0.40;0.40;;;9.40;99.90;8.80;101235.00;;;;5112315;28;20177;-71
2022/03/12 06:21:07;;;;;;;1.70;1.20;;;9.40;99.90;8.70;101230.00;;;;5095943;28;20192;-70
2022/03/12 06:23:37;;;;;;;0.97;0.97;;;9.50;99.90;8.70;101242.00;;;;5095861;28;20629;-70
2022/03/12 06:26:09;;;;;;;0.90;0.90;;;9.40;99.90;9.00;101187.00;;;;5112649;28;20178;-71
2022/03/12 06:28:41;;;;;;;0.30;0.30;;;9.40;99.90;9.10;101228.00;;;;5112714;28;20184;-71
2022/03/12 06:31:13;;;;;;;0.40;0.40;;;9.50;99.90;8.90;101221.00;;;;5096081;28;20195;-70
2022/03/12 06:33:40;;;;;;;0.40;0.40;;;9.50;99.90;8.80;101239.00;;;;5095261;28;20188;-71
2022/03/12 06:36:08;;;;;;;0.60;0.60;;;9.50;99.90;8.90;101235.00;;;;5113716;28;20184;-71
2022/03/12 06:38:38;;;;;;;1.83;1.37;;;9.50;99.90;8.90;101252.00;;;;5112628;28;20183;-70
2022/03/12 06:41:05;;;;;;;0.90;0.80;;;9.50;99.90;8.80;101245.00;;;;5095826;28;20189;-70
2022/03/12 06:43:34;;;;;;;0.57;0.50;;;9.50;99.90;8.90;101254.00;;;;5095619;28;20172;-70
2022/03/12 06:46:01;;;;;;;0.30;0.30;;;9.50;99.90;8.80;101249.00;;;;5112072;28;20178;-71
2022/03/12 06:48:32;;;;;;;1.10;1.10;;;9.50;99.90;8.70;101256.00;;;;5112599;28;20205;-71
2022/03/12 06:51:01;;;;;;;0.83;0.83;;;9.50;99.90;8.90;101263.00;;;;5112434;28;20498;-71
2022/03/12 06:53:33;;;;;;;0.30;0.30;;;9.50;99.90;9.10;101262.00;;;;5113760;28;20701;-72
2022/03/12 06:56:02;;;;;;;0.43;0.43;;;9.60;99.90;9.20;101273.00;;;;5117021;28;20165;-71
2022/03/12 06:58:30;;;;;;;0.30;0.30;;;9.60;99.90;8.90;101265.00;;;;5099208;28;20300;-71
2022/03/12 07:00:59;;;;;;;0.40;0.40;;;9.60;99.90;9.00;101274.00;;;;5117459;28;20188;-71
2022/03/12 07:03:30;;;;;;;3.83;1.07;;;9.60;99.90;9.00;101267.00;;;;5099382;28;20208;-72
2022/03/12 07:05:58;;;;;;;0.93;0.37;;;9.60;99.90;9.20;101271.00;;;;5099532;28;20186;-72
2022/03/12 07:08:24;;;;;;;0.20;0.20;;;9.70;99.90;9.20;101268.00;;;;5099454;28;20210;-72
2022/03/12 07:11:13;;;;;;;0.50;0.50;;;9.70;99.90;9.40;101258.00;;;;5099354;28;20240;-72
2022/03/12 07:13:44;;;;;;;1.07;0.70;;;9.80;99.90;9.40;101285.00;;;;5099284;28;20194;-71
2022/03/12 07:16:47;;;;;;;0.50;0.50;;;9.90;99.90;9.40;101280.00;;;;5116197;28;20178;-74
2022/03/12 07:19:21;;;;;;;0.20;0.20;;;10.00;99.90;9.60;101311.00;;;;5068631;28;20232;-72
2022/03/12 07:21:53;;;;;;;1.23;1.13;;;10.10;99.90;9.70;101307.00;;;;5039055;28;20193;-73
2022/03/12 07:24:31;;;;;;;0.43;0.43;;;10.20;99.90;9.70;101310.00;;;;5038710;28;20753;-73
2022/03/12 07:27:09;;;;;;;1.13;1.03;;;10.30;99.90;9.80;101299.00;;;;5055160;28;20186;-72
2022/03/12 07:30:08;;;;;;;0.50;0.50;;;10.40;99.90;9.60;101310.00;;;;5038868;28;20196;-74
2022/03/12 07:32:39;;;;;;;3.40;2.53;;;10.20;99.90;10.00;101314.00;;;;5032999;28;20228;-72
2022/03/12 07:35:11;;;;;;;0.90;0.90;;;10.50;99.90;9.90;101324.00;;;;5039084;28;20187;-71
2022/03/12 07:37:41;;;;;;;0.97;0.90;;;10.60;99.90;10.10;101281.00;;;;5055311;28;20191;-70
2022/03/12 07:40:12;;;;;;;1.57;1.07;;;10.70;99.90;9.60;101280.00;;;;5055447;28;20182;-72
2022/03/12 07:43:32;;;;;;;0.67;0.67;;;10.50;99.90;9.70;101335.00;;;;5038753;28;20199;-72
2022/03/12 07:46:18;;;;;;;0.43;0.43;;;10.40;99.90;9.80;101332.00;;;;5025414;28;20319;-73
2022/03/12 07:48:47;;;;;;;0.90;0.80;;;10.30;99.90;9.60;101332.00;;;;5040729;28;20518;-72
2022/03/12 07:51:16;;;;;;;11.67;0.90;;;10.30;99.90;9.40;101340.00;;;;5055059;28;20178;-74
2022/03/12 07:54:00;;;;;;;3.70;1.07;;;10.20;99.90;9.60;101355.00;;;;5038327;28;20178;-73
2022/03/12 07:56:36;;;;;;;0.93;0.67;;;10.20;99.90;9.50;101341.00;;;;5055036;28;20188;-72
2022/03/12 07:59:05;;;;;;;0.57;0.57;;;10.30;99.90;9.60;101345.00;;;;5056096;28;20170;-74
2022/03/12 08:02:13;;;;;;;0.50;0.50;;;10.30;99.90;9.60;101370.00;;;;5054805;28;20200;-70
2022/03/12 08:04:42;;;;;;;0.70;0.70;;;10.30;99.90;9.80;101331.00;;;;5055594;28;20209;-72
2022/03/12 08:07:39;;;;;;;3.97;1.47;;;10.50;99.90;10.10;101348.00;;;;5037852;28;20213;-71
2022/03/12 08:10:07;;;;;;;1.27;1.17;;;10.70;99.90;10.30;101363.00;;;;5048179;28;20197;-72
2022/03/12 08:13:27;;;;;;;4.27;0.70;;;10.90;99.90;10.40;101360.00;;;;5053992;28;20218;-72
2022/03/12 08:16:04;;;;;;;0.33;0.33;;;11.00;99.90;10.60;101351.00;;;;5044409;28;20274;-70
2022/03/12 08:18:30;;;;;;;3.10;2.50;;;11.30;99.90;10.90;101360.00;;;;5037702;28;20584;-71
2022/03/12 08:20:56;;;;;;;1.40;0.60;;;11.50;99.90;10.80;101361.00;;;;5037898;28;20198;-74
2022/03/12 08:23:24;;;;;;;0.50;0.50;;;11.60;99.90;10.70;101355.00;;;;5037582;28;20187;-71
2022/03/12 08:25:52;;;;;;;1.10;0.87;;;11.40;99.90;10.80;101373.00;;;;5037534;28;20180;-72
2022/03/12 08:28:22;;;;;;;1.30;1.07;;;11.60;99.90;10.60;101361.00;;;;5037246;28;20192;-71
2022/03/12 08:30:54;;;;;;;3.13;1.20;;;11.40;99.90;10.60;101338.00;;;;5054160;28;20209;-72
2022/03/12 08:33:24;;;;;;;0.63;0.63;;;11.30;99.90;11.00;101380.00;;;;5053786;28;20244;-72
2022/03/12 08:39:29;;;;;;;0.60;0.60;;;11.50;99.90;10.90;101386.00;;;;5054222;28;20642;-70
2022/03/12 08:41:55;;;;;;;0.53;0.53;;;11.50;99.90;10.70;101390.00;;;;5053579;28;20185;-70
2022/03/12 08:44:24;;;;;;;2.50;1.03;;;11.50;99.90;11.00;101350.00;;;;5037139;28;20189;-72
2022/03/12 08:46:55;;;;;;;2.33;1.33;;;11.70;99.90;11.70;101371.00;;;;5037444;28;20183;-70
2022/03/12 08:49:21;;;;;;;3.33;1.00;;;12.00;99.90;11.10;101402.00;;;;5053830;28;20183;-70
2022/03/12 08:51:50;;;;;;;0.73;0.63;;;11.90;99.90;10.60;101388.00;;;;5036923;28;20208;-71
2022/03/12 08:54:19;;;;;;;10.93;2.00;;;11.60;99.90;10.80;101403.00;;;;5053720;28;20396;-72
2022/03/12 08:56:50;;;;;;;2.70;1.17;;;11.50;99.90;10.70;101395.00;;;;5053529;28;20225;-71
2022/03/12 08:59:17;;;;;;;0.53;0.30;;;11.50;99.90;10.40;101407.00;;;;5053415;28;20189;-71
2022/03/12 09:02:20;;;;;;;1.73;1.17;;;11.30;99.90;11.10;101416.00;;;;5036696;28;20193;-71
2022/03/12 09:04:47;;;;;;;0.20;0.20;;;11.60;99.90;10.60;101410.00;;;;5053409;28;20218;-70
2022/03/12 09:07:20;;;;;;;0.73;0.73;;;11.50;99.90;11.70;101420.00;;;;5053371;28;20645;-70
2022/03/12 09:09:54;;;;;;;0.83;0.30;;;12.00;99.90;12.20;101409.00;;;;5037524;28;20714;-71
2022/03/12 09:15:18;;;;;;;1.33;0.60;;;12.30;99.90;11.60;101428.00;;;;5050558;28;20201;-71
2022/03/12 09:17:51;;;;;;;0.63;0.63;;;12.40;99.90;11.40;101419.00;;;;5054282;28;20177;-70
2022/03/12 09:20:17;;;;;;;0.90;0.67;;;12.20;99.90;12.00;101394.00;;;;5054116;28;20185;-72
2022/03/12 09:22:52;;;;;;;1.37;1.27;;;12.40;99.90;11.30;101420.00;;;;5036523;28;20235;-71
2022/03/12 09:25:25;;;;;;;0.20;0.20;;;12.20;99.90;12.20;101413.00;;;;5053033;28;20188;-71
2022/03/12 09:27:56;;;;;;;5.37;0.77;;;12.50;99.90;12.40;101415.00;;;;5053226;28;20605;-70
2022/03/12 09:30:25;;;;;;;0.50;0.50;;;12.80;99.90;12.60;101417.00;;;;5052847;28;20174;-70
2022/03/12 09:32:54;;;;;;;0.20;0.20;;;13.10;99.90;12.80;101376.00;;;;5052210;28;20233;-70
2022/03/12 09:35:23;;;;;;;0.37;0.37;;;13.20;99.90;13.10;101432.00;;;;5036620;28;20629;-70
2022/03/12 09:37:54;;;;;;;0.83;0.43;;;13.50;99.90;12.60;101443.00;;;;5036332;28;20178;-70
2022/03/12 09:40:22;;;;;;;0.30;0.30;;;13.30;99.90;12.90;101432.00;;;;5036649;28;20205;-71
2022/03/12 09:42:54;;;;;;;1.80;0.80;;;13.30;99.90;13.00;101449.00;;;;5036024;28;20540;-71
2022/03/12 09:45:26;;;;;;;1.50;0.37;;;13.40;99.90;13.10;101453.00;;;;5052615;28;20261;-71
2022/03/12 09:47:57;;;;;;;0.20;0.20;;;13.40;99.90;13.20;101448.00;;;;5052780;28;20265;-71
2022/03/12 09:50:23;;;;;;;0.20;0.20;;;13.50;99.90;14.30;101458.00;;;;5036286;28;20562;-71
2022/03/12 09:52:51;;;;;;;0.20;0.20;;;14.00;99.90;13.80;101476.00;;;;5035605;28;20214;-71
2022/03/12 09:55:23;;;;;;;0.10;0.10;;;14.20;99.90;13.50;101481.00;;;;5035500;28;20299;-71
2022/03/12 09:57:51;;;;;;;0.63;0.63;;;14.10;99.90;13.90;101475.00;;;;5035736;28;20193;-71
2022/03/12 10:00:19;;;;;;;0.70;0.70;;;14.00;99.90;13.30;101473.00;;;;5035757;28;20213;-71
2022/03/12 10:02:51;;;;;;;0.93;0.93;;;13.90;99.90;13.20;101474.00;;;;5035856;28;20653;-71
2022/03/12 10:05:26;;;;;;;0.47;0.47;;;13.80;99.90;12.90;101476.00;;;;5053572;28;20180;-70
2022/03/12 10:07:51;;;;;;;0.27;0.27;;;13.60;99.90;14.40;101494.00;;;;5036137;28;20642;-71
2022/03/12 10:10:21;;;;;;;1.60;0.70;;;14.20;99.90;13.40;101485.00;;;;5051715;28;20182;-71
2022/03/12 10:12:49;;;;;;;0.50;0.50;;;13.90;99.90;13.40;101478.00;;;;5051980;28;20577;-71
2022/03/12 10:15:18;;;;;;;0.60;0.50;;;13.90;99.90;13.70;101485.00;;;;5035623;28;20187;-72
2022/03/12 10:18:06;;;;;;;0.10;0.10;;;13.80;99.90;13.00;101492.00;;;;5052252;28;20183;-71
2022/03/12 10:33:27;;;;;;;0.30;0.30;;;12.70;99.90;12.10;101419.00;;;;5113278;27;1317549;-71
2022/03/12 10:35:53;;;;;;;0.37;0.37;;;12.60;99.90;12.60;101471.00;;;;5130829;28;20172;-71
2022/03/12 10:38:25;;;;;;;0.83;0.57;;;12.90;99.90;13.00;101437.00;;;;5113189;28;20207;-71
2022/03/12 10:40:59;;;;;;;0.37;0.37;;;13.20;99.90;13.20;101490.00;;;;5113207;28;20186;-71
2022/03/12 10:43:25;;;;;;;0.10;0.10;;;13.40;99.90;14.00;101495.00;;;;5130363;28;20183;-71
2022/03/12 10:45:59;;;;;;;0.30;0.30;;;14.00;99.90;13.80;101505.00;;;;5113183;28;20277;-71
2022/03/12 10:48:42;;;;;;;0.97;0.77;;;14.20;99.90;13.30;101508.00;;;;5113405;28;20587;-71
2022/03/12 10:51:14;;;;;;;3.20;0.83;;;14.10;99.90;14.40;101498.00;;;;5130038;28;20648;-71
2022/03/12 10:54:15;;;;;;;0.10;0.10;;;14.40;99.90;15.10;101520.00;;;;5112882;28;20204;-72
2022/03/12 10:56:57;;;;;;;0.30;0.30;;;14.90;99.90;15.60;101535.00;;;;5130099;28;20186;-71
2022/03/12 10:59:27;;;;;;;0.70;0.60;;;15.50;99.90;15.90;101540.00;;;;5113412;28;20563;-72
2022/03/12 11:02:15;;;;;;;0.33;0.33;;;15.80;99.90;15.80;101546.00;;;;5129723;28;20662;-71
2022/03/12 11:04:43;;;;;;;0.80;0.80;;;15.80;99.90;15.90;101557.00;;;;5130202;28;20181;-71
2022/03/12 11:07:28;;;;;;;0.50;0.50;;;15.80;99.90;15.30;101558.00;;;;5112255;28;20199;-71
2022/03/12 11:09:58;;;;;;;0.30;0.30;;;15.80;99.90;15.60;101540.00;;;;5129997;28;20169;-71
2022/03/12 11:12:55;;;;;;;0.77;0.53;;;15.80;99.90;15.30;101542.00;;;;5129641;28;20577;-71
2022/03/12 11:15:23;;;;;;;0.30;0.30;;;15.50;99.90;15.00;101542.00;;;;5122807;28;20647;-71
2022/03/12 11:17:53;;;;;;;0.37;0.37;;;15.40;99.90;14.40;101551.00;;;;5131211;27;20271;-71
2022/03/12 11:20:28;;;;;;;0.30;0.30;;;14.80;99.90;14.00;101537.00;;;;5130899;27;20198;-72
2022/03/12 11:23:16;;;;;;;0.10;0.10;;;14.40;99.90;14.50;101548.00;;;;5129164;28;20185;-71
2022/03/12 11:26:05;;;;;;;0.10;0.10;;;14.50;99.90;16.00;101558.00;;;;5129590;28;20184;-71
2022/03/12 11:28:43;;;;;;;0.17;0.17;;;15.20;99.90;15.30;101570.00;;;;5129760;28;20186;-71
2022/03/12 11:31:12;;;;;;;0.10;0.10;;;15.60;99.90;14.40;101561.00;;;;5129515;28;20211;-73
2022/03/12 11:34:26;;;;;;;3.30;0.67;;;15.00;99.90;14.20;101558.00;;;;5112462;28;20280;-72